WetterOnline ( http://www.wetteronline.de )

Wetter aktuell PLZ Bereich 36404

Aktuelles Wetter: Eisenach (312m)

6-stündlich | Neueste Meldungen
Ortszeit Temperatur Wetter
Fr, 27.04. 2:00 5.5° C leicht bewölkt
Do, 26.04. 20:00 11.4° C bewölkt
Do, 26.04. 14:00 10.0° C wolkig
Do, 26.04. 8:00 7.2° C bewölkt
Do, 26.04. 2:00 8.7° C bedeckt
Mi, 25.04. 20:00 13.0° C leicht bewölkt
Mi, 25.04. 14:00 14.1° C leichter Regen
Mi, 25.04. 8:00 13.5° C bedeckt
Ortszeit Temperatur Wetter
Fr, 27.04. 4:10 3.8° C wolkig
Fr, 27.04. 4:00 4.2° C wolkig
Fr, 27.04. 3:50 4.2° C wolkig
Fr, 27.04. 3:40 4.5° C wolkig
Fr, 27.04. 3:30 4.5° C wolkig
Fr, 27.04. 3:20 4.5° C wolkig
Fr, 27.04. 3:00 4.5° C fast wolkenlos
Fr, 27.04. 2:30 5.1° C fast wolkenlos
Fr, 27.04. 2:00 5.5° C leicht bewölkt
Fr, 27.04. 1:30 6.9° C wolkig
Fr, 27.04. 1:00 7.1° C wolkig
Ortszeit Relative Feuchte Sichtweite
Fr, 27.04. 2:00 86% 20 km
Do, 26.04. 20:00 47% 65 km
Do, 26.04. 14:00 69% 23 km
Do, 26.04. 8:00 70% 50 km
Do, 26.04. 2:00 85% 11 km
Mi, 25.04. 20:00 63% 21 km
Mi, 25.04. 14:00 69% 19 km
Mi, 25.04. 8:00 67% 26 km
Ortszeit Relative Feuchte Sichtweite
Fr, 27.04. 4:10 94% -
Fr, 27.04. 4:00 92% 12 km
Fr, 27.04. 3:50 92% -
Fr, 27.04. 3:40 89% -
Fr, 27.04. 3:30 91% 14 km
Fr, 27.04. 3:20 91% -
Fr, 27.04. 3:00 91% 16 km
Fr, 27.04. 2:30 88% 17 km
Fr, 27.04. 2:00 86% 20 km
Fr, 27.04. 1:30 77% 30 km
Fr, 27.04. 1:00 76% 28 km
Ortszeit Niederschlagsmenge Niederschlagsart
Fr, 27.04. 2:00 0.1 l/m2 in 6 Std. Regen
Do, 26.04. 20:00 0.8 l/m2 in 12 Std. Regen
Do, 26.04. 14:00 0.4 l/m2 in 6 Std. Regen
Do, 26.04. 8:00 0.0 l/m2 in 12 Std. -
Do, 26.04. 2:00 0.0 l/m2 in 6 Std. -
Mi, 25.04. 20:00 0.6 l/m2 in 12 Std. Regen
Mi, 25.04. 14:00 0.1 l/m2 in 6 Std. Regen
Mi, 25.04. 8:00 0.0 l/m2 in 12 Std. -
Ortszeit Niederschlagsmenge Niederschlagsart
Fr, 27.04. 4:10 keine Meldung -
Fr, 27.04. 4:00 0.0 l/m2 in 1 Std. -
Fr, 27.04. 3:50 keine Meldung -
Fr, 27.04. 3:40 keine Meldung -
Fr, 27.04. 3:30 0.0 l/m2 in 1 Std. -
Fr, 27.04. 3:20 keine Meldung -
Fr, 27.04. 3:00 0.0 l/m2 in 1 Std. -
Fr, 27.04. 2:30 0.0 l/m2 in 1 Std. -
Fr, 27.04. 2:00 0.0 l/m2 in 1 Std. Regen
Fr, 27.04. 1:30 0.0 l/m2 in 1 Std. -
Fr, 27.04. 1:00 0.0 l/m2 in 1 Std. -
Ortszeit Stärke Spitze Richtung
km/h Bft. km/h Grad Sektor
Fr, 27.04. 2:00 4 1 22 250° W
Do, 26.04. 20:00 14 3 47 260° W
Do, 26.04. 14:00 24 4 52 260° W
Do, 26.04. 8:00 18 3 32 240° SW
Do, 26.04. 2:00 4 1 14 230° SW
Mi, 25.04. 20:00 7 2 47 330° NW
Mi, 25.04. 14:00 32 5 58 240° SW
Mi, 25.04. 8:00 22 4 40 230° SW
Ortszeit Stärke Spitze Richtung
km/h Bft. km/h Grad Sektor
Fr, 27.04. 4:10 4 1 - 170° S
Fr, 27.04. 4:00 0 0 7 - -
Fr, 27.04. 3:50 2 1 - 90° O
Fr, 27.04. 3:40 4 1 - 200° S
Fr, 27.04. 3:30 4 1 7 360° N
Fr, 27.04. 3:20 4 1 - 360° N
Fr, 27.04. 3:00 4 1 7 180° S
Fr, 27.04. 2:30 2 1 6 330° NW
Fr, 27.04. 2:00 4 1 11 250° W
Fr, 27.04. 1:30 7 2 11 270° W
Fr, 27.04. 1:00 6 1 7 240° SW
Ortszeit Untergrenze Bedeckung Gattung
total tief tief mittel hoch
Fr, 27.04. 2:00 7800 m 3/8 0/8 - - -
Do, 26.04. 20:00 5700 m 7/8 6/8 - - -
Do, 26.04. 14:00 690 m 6/8 6/8 - - -
Do, 26.04. 8:00 780 m 7/8 7/8 - - -
Do, 26.04. 2:00 1500 m 8/8 8/8 - - -
Mi, 25.04. 20:00 1350 m 2/8 1/8 - - -
Mi, 25.04. 14:00 1080 m 8/8 8/8 - - -
Mi, 25.04. 8:00 1500 m 8/8 8/8 - - -
Ortszeit Bedeckungsgrad in Achtel und Wolkenuntergrenze
Fr, 27.04. 4:10 8(8700m) 8(9000m)
Fr, 27.04. 4:00 1(1800m) 7(8700m) 8(9000m)
Fr, 27.04. 3:50 1(1800m) 7(8700m) 8(9000m)
Fr, 27.04. 3:40 3(1800m) 7(9000m) 8(9000m)
Fr, 27.04. 3:30 5(1800m) 7(9000m) 8(9000m)
Fr, 27.04. 3:20 5(1800m) 7(9000m)
Fr, 27.04. 3:00 1(2400m)
Fr, 27.04. 2:30 1(1800m)
Fr, 27.04. 2:00 1(7800m) 3(8400m)
Fr, 27.04. 1:30 1(1800m) 6(7800m) 7(8700m)
Fr, 27.04. 1:00 3(1500m) 7(8700m) 7(9000m)
Ortszeit Luftdruck NN (hPa) Tendenz (hPa in 3 Std.)
Fr, 27.04. 2:00 1019 0,0
Do, 26.04. 20:00 1017 + 0,3
Do, 26.04. 14:00 1017 + 1,1
Do, 26.04. 8:00 1015 + 1,2
Do, 26.04. 2:00 1013 + 0,2
Mi, 25.04. 20:00 1011 + 0,3
Mi, 25.04. 14:00 1010 + 0,6
Mi, 25.04. 8:00 1009 - 0,4
Ortszeit Luftdruck NN (hPa) Tendenz (hPa in 3 Std.)
Fr, 27.04. 4:10 1018 keine Meldung
Fr, 27.04. 4:00 1018 - 0,5
Fr, 27.04. 3:50 1018 keine Meldung
Fr, 27.04. 3:40 1018 keine Meldung
Fr, 27.04. 3:30 1018 - 0,6
Fr, 27.04. 3:20 1018 keine Meldung
Fr, 27.04. 3:00 1019 - 0,3
Fr, 27.04. 2:30 1019 - 0,1
Fr, 27.04. 2:00 1019 0,0
Fr, 27.04. 1:30 1018 - 0,2
Fr, 27.04. 1:00 1019 0,0
Ortszeit Schneehöhe (cm)
Fr, 27.04. 2:00 0
Do, 26.04. 20:00 0
Do, 26.04. 14:00 0
Do, 26.04. 8:00 0
Do, 26.04. 2:00 0
Mi, 25.04. 20:00 0
Mi, 25.04. 14:00 0
Mi, 25.04. 8:00 0
Ortszeit Schneehöhe (cm)
Fr, 27.04. 4:10 0
Fr, 27.04. 4:00 0
Fr, 27.04. 3:50 0
Fr, 27.04. 3:40 0
Fr, 27.04. 3:30 0
Fr, 27.04. 3:20 0
Fr, 27.04. 3:00 0
Fr, 27.04. 2:30 0
Fr, 27.04. 2:00 0
Fr, 27.04. 1:30 0
Fr, 27.04. 1:00 0
Link zu dieser Seite / Seite empfehlen

Das Wetter in ...